createdAt,value
2017-07-12T00:01:32.354Z,19.94
2017-07-12T00:03:58.705Z,20.00
2017-07-12T00:06:25.090Z,20.05
2017-07-12T00:08:51.427Z,19.32
2017-07-12T00:11:17.769Z,20.35
2017-07-12T00:13:44.113Z,20.13
2017-07-12T00:16:10.460Z,19.70
2017-07-12T00:18:36.791Z,19.34
2017-07-12T00:21:03.127Z,19.30
2017-07-12T00:23:29.873Z,19.72
2017-07-12T00:25:56.211Z,20.06
2017-07-12T00:28:22.589Z,19.90
2017-07-12T00:30:48.951Z,20.57
2017-07-12T00:33:15.813Z,20.67
2017-07-12T00:35:42.193Z,20.68
2017-07-12T00:38:08.561Z,20.74
2017-07-12T00:40:34.897Z,20.48
2017-07-12T00:43:01.262Z,19.80
2017-07-12T00:45:27.603Z,19.58
2017-07-12T00:47:53.969Z,19.07
2017-07-12T00:50:20.337Z,19.27
2017-07-12T00:52:46.696Z,20.40
2017-07-12T00:55:13.033Z,20.57
2017-07-12T00:57:39.388Z,20.59
2017-07-12T01:00:05.821Z,20.57
2017-07-12T01:02:32.159Z,20.35
2017-07-12T01:04:58.511Z,19.34
2017-07-12T01:07:24.884Z,19.10
2017-07-12T01:09:51.247Z,19.13
2017-07-12T01:12:17.572Z,19.71
2017-07-12T01:14:43.917Z,20.00
2017-07-12T01:17:10.281Z,19.25
2017-07-12T01:19:36.669Z,19.41
2017-07-12T01:22:03.015Z,18.96
2017-07-12T01:24:29.371Z,19.91
2017-07-12T01:26:55.710Z,19.93
2017-07-12T01:29:22.063Z,20.48
2017-07-12T01:31:48.437Z,20.30
2017-07-12T01:34:14.846Z,20.24
2017-07-12T01:36:41.207Z,20.47
2017-07-12T01:39:07.569Z,20.45
2017-07-12T01:41:33.936Z,19.66
2017-07-12T01:44:00.375Z,19.62
2017-07-12T01:46:26.763Z,19.06
2017-07-12T01:48:53.238Z,18.69
2017-07-12T01:51:19.705Z,19.78
2017-07-12T01:53:49.276Z,20.36
2017-07-12T01:56:18.873Z,20.02
2017-07-12T01:58:50.748Z,19.26
2017-07-12T02:01:17.468Z,18.93
2017-07-12T02:03:49.950Z,18.68
2017-07-12T02:06:16.478Z,18.55
2017-07-12T02:08:48.333Z,19.83
2017-07-12T02:11:19.965Z,19.86
2017-07-12T02:13:51.918Z,19.99
2017-07-12T02:16:23.784Z,19.34
2017-07-12T02:18:50.637Z,19.08
2017-07-12T02:21:22.943Z,18.76
2017-07-12T02:23:49.372Z,19.29
2017-07-12T02:26:15.850Z,19.39
2017-07-12T02:28:42.346Z,19.19
2017-07-12T02:31:14.245Z,18.91
2017-07-12T02:33:41.032Z,19.33
2017-07-12T02:36:07.440Z,18.73
2017-07-12T02:38:37.008Z,18.58
2017-07-12T02:41:03.431Z,19.35
2017-07-12T02:43:35.270Z,19.69
2017-07-12T02:46:07.751Z,19.91
2017-07-12T02:48:34.263Z,20.21
2017-07-12T02:51:00.767Z,19.42
2017-07-12T02:53:32.543Z,19.64
2017-07-12T02:55:58.939Z,19.70
2017-07-12T02:58:28.490Z,18.58
2017-07-12T03:01:00.096Z,19.68
2017-07-12T03:03:31.649Z,19.09
2017-07-12T03:05:58.182Z,19.35
2017-07-12T03:08:29.662Z,18.36
2017-07-12T03:10:56.101Z,18.64
2017-07-12T03:13:22.527Z,18.56
2017-07-12T03:15:49.201Z,18.56
2017-07-12T03:18:15.703Z,18.46
2017-07-12T03:20:42.137Z,19.02
2017-07-12T03:23:08.657Z,18.40
2017-07-12T03:25:40.697Z,19.43
2017-07-12T03:28:07.117Z,18.53
2017-07-12T03:30:33.633Z,18.26
2017-07-12T03:33:00.467Z,18.46
2017-07-12T03:35:26.902Z,19.49
2017-07-12T03:37:53.610Z,19.17
2017-07-12T03:40:20.065Z,18.79
2017-07-12T03:42:49.438Z,18.52
2017-07-12T03:45:15.795Z,19.39
2017-07-12T03:47:42.219Z,19.43
2017-07-12T03:50:09.213Z,18.89
2017-07-12T03:52:36.597Z,19.37
2017-07-12T03:55:03.024Z,19.37
2017-07-12T03:57:29.403Z,19.36
2017-07-12T03:59:55.825Z,18.97
2017-07-12T04:02:25.557Z,19.32
2017-07-12T04:04:52.110Z,19.57
2017-07-12T04:07:18.876Z,19.29
2017-07-12T04:09:50.481Z,19.08
2017-07-12T04:12:16.937Z,19.23
2017-07-12T04:14:43.759Z,19.56
2017-07-12T04:17:15.418Z,19.67
2017-07-12T04:19:42.423Z,19.53
2017-07-12T04:22:09.268Z,19.25
2017-07-12T04:24:35.722Z,19.06
2017-07-12T04:27:02.094Z,19.45
2017-07-12T04:29:28.459Z,19.28
2017-07-12T04:31:55.043Z,19.65
2017-07-12T04:34:26.712Z,18.63
2017-07-12T04:36:53.076Z,19.10
2017-07-12T04:39:23.014Z,19.08
2017-07-12T04:41:49.548Z,18.93
2017-07-12T04:44:15.974Z,18.69
2017-07-12T04:46:42.687Z,18.27
2017-07-12T04:49:14.306Z,17.83
2017-07-12T04:51:40.740Z,17.97
2017-07-12T04:54:08.165Z,18.28
2017-07-12T04:56:34.632Z,18.84
2017-07-12T04:59:01.141Z,18.11
2017-07-12T05:01:28.476Z,17.64
2017-07-12T05:03:54.916Z,17.71
2017-07-12T05:06:21.361Z,17.58
2017-07-12T05:08:53.902Z,18.22
2017-07-12T05:11:20.395Z,18.21
2017-07-12T05:13:46.766Z,17.90
2017-07-12T05:16:13.222Z,18.92
2017-07-12T05:18:39.589Z,18.67
2017-07-12T05:21:06.056Z,18.80
2017-07-12T05:23:32.859Z,18.95
2017-07-12T05:25:59.640Z,18.89
2017-07-12T05:28:31.264Z,18.72
2017-07-12T05:31:02.847Z,18.17
2017-07-12T05:33:29.264Z,18.09
2017-07-12T05:36:00.939Z,19.29
2017-07-12T05:38:33.130Z,18.51
2017-07-12T05:40:59.701Z,19.29
2017-07-12T05:43:26.255Z,18.82
2017-07-12T05:45:53.473Z,18.59
2017-07-12T05:48:25.538Z,17.94
2017-07-12T05:50:52.195Z,18.45
2017-07-12T05:53:18.594Z,18.56
2017-07-12T05:55:50.358Z,18.25
2017-07-12T05:58:16.896Z,18.95
2017-07-12T06:00:43.661Z,18.98
2017-07-12T06:03:10.411Z,19.49
2017-07-12T06:05:36.800Z,18.81
2017-07-12T06:08:03.262Z,18.75
2017-07-12T06:10:30.690Z,19.11
2017-07-12T06:12:57.858Z,19.07
2017-07-12T06:15:24.521Z,19.10
2017-07-12T06:17:53.965Z,19.15
2017-07-12T06:20:25.903Z,19.15
2017-07-12T06:22:52.379Z,19.70
2017-07-12T06:25:19.721Z,19.16
2017-07-12T06:27:46.158Z,18.99
2017-07-12T06:30:15.548Z,19.07
2017-07-12T06:32:43.056Z,19.28
2017-07-12T06:35:09.667Z,19.02
2017-07-12T06:37:36.127Z,19.42
2017-07-12T06:40:02.671Z,19.32
2017-07-12T06:42:30.008Z,19.38
2017-07-12T06:44:57.381Z,18.93
2017-07-12T06:47:28.988Z,19.09
2017-07-12T06:49:55.629Z,18.97
2017-07-12T06:52:27.672Z,19.47
2017-07-12T06:54:54.010Z,19.29
2017-07-12T06:57:20.855Z,19.43
2017-07-12T06:59:52.541Z,18.93
2017-07-12T07:02:19.030Z,19.18
2017-07-12T07:04:45.434Z,19.59
2017-07-12T07:07:17.313Z,19.48
2017-07-12T07:09:44.049Z,19.54
2017-07-12T07:12:10.760Z,19.35
2017-07-12T07:14:42.410Z,19.58
2017-07-12T07:17:14.058Z,19.45
2017-07-12T07:19:40.845Z,19.74
2017-07-12T07:22:07.290Z,19.57
2017-07-12T07:24:39.375Z,19.26
2017-07-12T07:27:07.900Z,19.74
2017-07-12T07:29:34.859Z,19.40
2017-07-12T07:32:01.302Z,19.37
2017-07-12T07:34:30.733Z,19.38
2017-07-12T07:36:57.643Z,19.32
2017-07-12T07:39:24.342Z,18.95
2017-07-12T07:41:55.948Z,19.51
2017-07-12T07:44:22.705Z,19.53
2017-07-12T07:46:49.196Z,19.61
2017-07-12T07:49:18.748Z,19.52
2017-07-12T07:51:46.060Z,19.46
2017-07-12T07:54:12.604Z,19.41
2017-07-12T07:56:38.962Z,19.54
2017-07-12T07:59:05.428Z,19.47
2017-07-12T08:01:31.908Z,19.32
2017-07-12T08:03:59.388Z,19.37
2017-07-12T08:06:26.115Z,19.23
2017-07-12T08:08:53.336Z,19.36
2017-07-12T08:11:20.014Z,19.24
2017-07-12T08:13:51.606Z,19.36
2017-07-12T08:16:18.044Z,18.65
2017-07-12T08:18:49.846Z,19.50
2017-07-12T08:21:16.496Z,19.25
2017-07-12T08:23:43.053Z,19.04
2017-07-12T08:26:09.500Z,19.36
2017-07-12T08:28:36.747Z,19.34
2017-07-12T08:31:08.290Z,19.72
2017-07-12T08:33:34.925Z,19.28
2017-07-12T08:36:01.397Z,19.64
2017-07-12T08:38:33.275Z,19.45
2017-07-12T08:40:59.889Z,19.64
2017-07-12T08:43:26.239Z,19.70
2017-07-12T08:45:57.843Z,19.56
2017-07-12T08:48:24.370Z,19.54
2017-07-12T08:50:50.811Z,19.69
2017-07-12T08:53:17.516Z,19.24
2017-07-12T08:55:44.954Z,19.69
2017-07-12T08:58:17.019Z,19.72
2017-07-12T09:00:44.278Z,19.05
2017-07-12T09:03:11.214Z,19.78
2017-07-12T09:05:37.882Z,19.79
2017-07-12T09:08:04.342Z,19.70
2017-07-12T09:10:30.761Z,19.76
2017-07-12T09:13:02.695Z,19.74
2017-07-12T09:15:34.390Z,18.98
2017-07-12T09:18:03.722Z,19.22
2017-07-12T09:20:30.199Z,19.17
2017-07-12T09:22:56.869Z,19.33
2017-07-12T09:35:09.544Z,19.52
2017-07-12T09:37:41.303Z,19.35
2017-07-12T09:40:07.831Z,18.92
2017-07-12T09:42:34.510Z,19.06
2017-07-12T09:45:01.039Z,19.18
2017-07-12T09:47:33.003Z,18.95
2017-07-12T09:49:59.839Z,19.05
2017-07-12T09:52:27.188Z,18.95
2017-07-12T09:54:54.049Z,19.29
2017-07-12T09:57:20.516Z,18.63
2017-07-12T09:59:50.257Z,19.39
2017-07-12T10:02:16.755Z,19.21
2017-07-12T10:04:48.336Z,19.33
2017-07-12T10:07:19.981Z,19.24
2017-07-12T10:09:46.332Z,19.30
2017-07-12T10:12:12.683Z,19.49
2017-07-12T10:14:39.003Z,19.50
2017-07-12T10:17:05.349Z,19.36
2017-07-12T10:19:31.683Z,19.23
2017-07-12T10:21:58.010Z,19.17
2017-07-12T10:24:24.376Z,19.37
2017-07-12T10:26:50.691Z,19.53
2017-07-12T10:29:17.038Z,19.26
2017-07-12T10:31:43.374Z,19.50
2017-07-12T10:34:09.731Z,19.30
2017-07-12T10:36:36.065Z,18.68
2017-07-12T10:39:02.509Z,19.40
2017-07-12T10:41:28.870Z,19.14
2017-07-12T10:43:55.241Z,19.21
2017-07-12T10:46:21.597Z,18.68
2017-07-12T10:48:47.929Z,19.29
2017-07-12T10:51:14.294Z,18.87
2017-07-12T10:53:40.665Z,19.08
2017-07-12T10:56:07.022Z,19.03
2017-07-12T10:58:33.400Z,19.45
2017-07-12T11:00:59.734Z,19.46
2017-07-12T11:03:26.088Z,19.34
2017-07-12T11:05:52.427Z,19.28
2017-07-12T11:08:18.747Z,19.25
2017-07-12T11:10:45.104Z,18.68
2017-07-12T11:13:11.480Z,19.17
2017-07-12T11:15:37.834Z,19.07
2017-07-12T11:18:04.187Z,19.29
2017-07-12T11:20:30.513Z,19.45
2017-07-12T11:22:56.894Z,19.19
2017-07-12T11:25:23.229Z,19.56
2017-07-12T11:27:49.575Z,19.36
2017-07-12T11:30:15.937Z,19.63
2017-07-12T11:32:42.293Z,19.62
2017-07-12T11:35:08.601Z,19.33
2017-07-12T11:37:35.426Z,19.40
2017-07-12T11:40:01.829Z,19.35
2017-07-12T11:42:28.194Z,19.43
2017-07-12T11:44:54.527Z,19.27
2017-07-12T11:47:20.889Z,19.31
2017-07-12T11:49:47.214Z,19.41
2017-07-12T11:52:13.609Z,19.09
2017-07-12T11:54:40.872Z,19.45
2017-07-12T11:57:07.295Z,19.36
2017-07-12T11:59:33.653Z,19.39
2017-07-12T12:02:00.043Z,19.17
2017-07-12T12:04:26.376Z,19.55
2017-07-12T12:06:52.735Z,19.39
2017-07-12T12:09:19.079Z,19.23
2017-07-12T12:11:45.397Z,19.30
2017-07-12T12:14:11.739Z,19.43
2017-07-12T12:16:38.068Z,19.59
2017-07-12T12:19:04.404Z,19.45
2017-07-12T12:21:30.747Z,19.21
2017-07-12T12:23:57.094Z,18.82
2017-07-12T12:26:23.422Z,18.40
2017-07-12T12:28:49.739Z,18.65
2017-07-12T12:31:16.102Z,18.27
2017-07-12T12:33:42.433Z,18.39
2017-07-12T12:36:08.786Z,17.69
2017-07-12T12:38:35.140Z,17.88
2017-07-12T12:41:01.481Z,18.10
2017-07-12T12:43:27.784Z,17.87
2017-07-12T12:45:54.129Z,18.12
2017-07-12T12:48:20.482Z,17.74
2017-07-12T12:50:46.874Z,17.53
2017-07-12T12:53:13.243Z,17.84
2017-07-12T12:55:39.582Z,17.70
2017-07-12T12:58:05.975Z,18.17
2017-07-12T13:00:32.340Z,17.99
2017-07-12T13:02:58.675Z,17.96
2017-07-12T13:05:31.014Z,18.10
2017-07-12T13:07:57.379Z,17.61
2017-07-12T13:10:23.757Z,17.57
2017-07-12T13:12:50.111Z,17.95
2017-07-12T13:15:16.458Z,18.22
2017-07-12T13:17:42.837Z,18.24
2017-07-12T13:20:09.184Z,18.37
2017-07-12T13:22:35.532Z,18.54
2017-07-12T13:25:01.925Z,17.77
2017-07-12T13:27:28.232Z,17.73
2017-07-12T13:29:54.581Z,18.14
2017-07-12T13:32:20.924Z,18.92
2017-07-12T13:34:47.290Z,18.30
2017-07-12T13:37:13.641Z,19.06
2017-07-12T13:39:39.986Z,18.46
2017-07-12T13:42:06.311Z,18.20
2017-07-12T13:44:32.641Z,18.27
2017-07-12T13:46:58.965Z,18.06
2017-07-12T13:49:25.325Z,18.15
2017-07-12T13:51:51.675Z,18.80
2017-07-12T13:54:18.054Z,18.44
2017-07-12T13:56:44.389Z,18.20
2017-07-12T13:59:10.725Z,18.36
2017-07-12T14:01:37.037Z,18.25
2017-07-12T14:04:03.406Z,18.35
2017-07-12T14:06:29.743Z,18.45
2017-07-12T14:08:56.080Z,18.78
2017-07-12T14:11:22.433Z,18.11
2017-07-12T14:13:48.774Z,18.82
2017-07-12T14:16:15.129Z,18.49
2017-07-12T14:18:41.483Z,18.59
2017-07-12T14:21:07.846Z,18.64
2017-07-12T14:23:34.186Z,18.56
2017-07-12T14:26:00.514Z,18.44
2017-07-12T14:28:26.886Z,18.53
2017-07-12T14:30:53.291Z,18.44
2017-07-12T14:33:19.928Z,18.56
2017-07-12T14:35:46.452Z,18.85
2017-07-12T14:38:12.823Z,19.09
2017-07-12T14:40:39.166Z,18.86
2017-07-12T14:43:05.496Z,18.68
2017-07-12T14:45:31.862Z,19.30
2017-07-12T14:47:58.214Z,18.94
2017-07-12T14:50:24.563Z,18.85
2017-07-12T14:52:50.952Z,19.42
2017-07-12T14:55:17.307Z,18.83
2017-07-12T14:57:43.633Z,18.61
2017-07-12T15:00:10.005Z,19.07
2017-07-12T15:02:36.359Z,18.69
2017-07-12T15:05:11.251Z,18.57
2017-07-12T15:07:37.581Z,18.15
2017-07-12T15:10:03.917Z,18.23
2017-07-12T15:12:30.261Z,17.89
2017-07-12T15:14:56.627Z,17.64
2017-07-12T15:17:22.944Z,17.27
2017-07-12T15:19:49.319Z,17.67
2017-07-12T15:22:15.680Z,17.16
2017-07-12T15:24:42.005Z,17.65
2017-07-12T15:27:08.366Z,17.81
2017-07-12T15:29:34.868Z,17.79
2017-07-12T15:32:11.717Z,16.81
2017-07-12T15:34:42.864Z,16.97
2017-07-12T15:37:11.355Z,17.43
2017-07-12T15:39:39.288Z,17.20
2017-07-12T15:42:09.611Z,17.73
2017-07-12T15:44:36.993Z,17.55
2017-07-12T15:47:06.090Z,17.31
2017-07-12T15:49:35.125Z,17.22
2017-07-12T15:52:02.285Z,17.62
2017-07-12T15:54:29.393Z,17.50
2017-07-12T15:56:57.121Z,17.43
2017-07-12T15:59:25.543Z,17.82
2017-07-12T16:01:51.905Z,17.76
2017-07-12T16:04:18.271Z,17.60
2017-07-12T16:06:44.600Z,17.38
2017-07-12T16:09:10.973Z,16.88
2017-07-12T16:11:37.322Z,17.21
2017-07-12T16:14:03.650Z,17.19
2017-07-12T16:16:30.489Z,17.17
2017-07-12T16:18:57.539Z,18.00
2017-07-12T16:21:24.317Z,17.42
2017-07-12T16:23:50.670Z,17.14
2017-07-12T16:26:17.718Z,17.23
2017-07-12T16:28:44.438Z,17.04
2017-07-12T16:31:11.483Z,17.10
2017-07-12T16:33:38.563Z,17.02
2017-07-12T16:36:05.297Z,17.49
2017-07-12T16:38:31.853Z,17.29
2017-07-12T16:40:58.211Z,17.49
2017-07-12T16:43:24.722Z,17.36
2017-07-12T16:45:51.050Z,17.52
2017-07-12T16:48:17.429Z,17.50
2017-07-12T16:50:43.773Z,17.19
2017-07-12T16:53:10.127Z,17.07
2017-07-12T16:55:36.461Z,16.96
2017-07-12T16:58:02.824Z,17.07
2017-07-12T17:00:29.177Z,17.00
2017-07-12T17:02:55.527Z,17.24
2017-07-12T17:05:21.849Z,16.84
2017-07-12T17:07:48.810Z,17.60
2017-07-12T17:10:15.459Z,18.18
2017-07-12T17:12:42.354Z,18.09
2017-07-12T17:15:09.251Z,18.53
2017-07-12T17:17:36.026Z,17.82
2017-07-12T17:20:03.199Z,18.10
2017-07-12T17:22:30.212Z,18.34
2017-07-12T17:24:57.073Z,18.13
2017-07-12T17:27:24.150Z,18.58
2017-07-12T17:29:50.938Z,18.33
2017-07-12T17:32:17.889Z,18.37
2017-07-12T17:34:45.002Z,17.87
2017-07-12T17:37:12.034Z,18.02
2017-07-12T17:39:38.607Z,17.74
2017-07-12T17:42:05.018Z,17.77
2017-07-12T17:44:31.698Z,18.20
2017-07-12T17:46:58.081Z,18.20
2017-07-12T17:49:24.535Z,17.71
2017-07-12T17:51:50.967Z,17.66
2017-07-12T17:54:17.352Z,18.01
2017-07-12T17:56:43.850Z,17.70
2017-07-12T17:59:10.213Z,17.45
2017-07-12T18:01:36.598Z,17.67
2017-07-12T18:04:02.954Z,17.71
2017-07-12T18:06:29.295Z,17.86
2017-07-12T18:21:54.711Z,17.74
2017-07-12T18:24:21.057Z,17.74
2017-07-12T18:26:47.510Z,17.06
2017-07-12T18:29:13.915Z,17.52
2017-07-12T18:31:40.400Z,17.73
2017-07-12T18:34:06.810Z,17.31
2017-07-12T18:36:33.157Z,17.52
2017-07-12T18:38:59.510Z,17.15
2017-07-12T18:41:26.908Z,17.05
2017-07-12T18:43:53.295Z,17.14
2017-07-12T18:46:19.690Z,17.14
2017-07-12T18:48:46.067Z,17.17
2017-07-12T18:51:12.491Z,17.16
2017-07-12T18:53:38.832Z,16.89
2017-07-12T18:56:05.197Z,16.74
2017-07-12T18:58:31.565Z,17.11
2017-07-12T19:00:57.955Z,16.82
2017-07-12T19:03:24.358Z,16.86
2017-07-12T19:05:50.748Z,16.91
2017-07-12T19:08:17.192Z,17.04
2017-07-12T19:10:43.594Z,16.68
2017-07-12T19:13:09.962Z,16.66
2017-07-12T19:15:41.600Z,16.71
2017-07-12T19:18:08.188Z,16.24
2017-07-12T19:20:34.558Z,16.56
2017-07-12T19:23:00.952Z,16.36
2017-07-12T19:25:27.347Z,16.22
2017-07-12T19:27:53.738Z,16.02
2017-07-12T19:30:20.352Z,16.72
2017-07-12T19:32:46.695Z,16.28
2017-07-12T19:35:14.529Z,15.85
2017-07-12T19:37:40.966Z,15.60
2017-07-12T19:40:07.533Z,15.74
2017-07-12T19:42:34.816Z,15.42
2017-07-12T19:45:01.256Z,15.77
2017-07-12T19:47:27.680Z,16.05
2017-07-12T19:49:54.081Z,16.01
2017-07-12T19:52:20.447Z,15.55
2017-07-12T19:54:46.836Z,15.25
2017-07-12T19:57:13.720Z,15.60
2017-07-12T19:59:40.873Z,15.72
2017-07-12T20:02:08.892Z,15.68
2017-07-12T20:04:35.302Z,15.75
2017-07-12T20:07:01.672Z,15.68
2017-07-12T20:09:28.022Z,15.69
2017-07-12T20:11:54.391Z,15.60
2017-07-12T20:14:20.777Z,15.86
2017-07-12T20:16:47.153Z,15.47
2017-07-12T20:19:13.531Z,15.67
2017-07-12T20:21:39.887Z,15.39
2017-07-12T20:24:06.266Z,16.11
2017-07-12T20:26:32.651Z,15.53
2017-07-12T20:28:59.086Z,15.89
2017-07-12T20:31:26.946Z,15.20
2017-07-12T20:33:54.950Z,15.67
2017-07-12T20:36:21.426Z,15.61
2017-07-12T20:38:47.780Z,15.35
2017-07-12T20:41:14.489Z,15.27
2017-07-12T20:43:40.852Z,15.16
2017-07-12T20:46:07.233Z,15.82
2017-07-12T20:48:33.616Z,15.37
2017-07-12T20:51:00.264Z,15.60
2017-07-12T20:53:26.723Z,14.95
2017-07-12T20:55:53.141Z,14.99
2017-07-12T20:58:19.596Z,15.09
2017-07-12T21:00:46.016Z,14.98
2017-07-12T21:03:12.386Z,15.39
2017-07-12T21:05:38.755Z,15.11
2017-07-12T21:08:05.103Z,15.25
2017-07-12T21:10:31.438Z,15.58
2017-07-12T21:12:58.131Z,15.05
2017-07-12T21:15:24.521Z,14.98
2017-07-12T21:17:50.865Z,14.86
2017-07-12T21:20:17.262Z,14.94
2017-07-12T21:22:43.658Z,14.85
2017-07-12T21:25:10.072Z,15.31
2017-07-12T21:27:36.475Z,15.09
2017-07-12T21:30:02.893Z,15.27
2017-07-12T21:32:29.233Z,14.17
2017-07-12T21:34:55.633Z,14.01
2017-07-12T21:37:21.984Z,13.74
2017-07-12T21:39:48.360Z,14.40
2017-07-12T21:42:14.766Z,13.81
2017-07-12T21:44:41.213Z,15.13
2017-07-12T21:47:07.536Z,14.72
2017-07-12T21:49:33.896Z,13.36
2017-07-12T21:52:00.245Z,13.57
2017-07-12T21:54:44.941Z,13.78
2017-07-12T21:57:29.581Z,13.37
2017-07-12T22:00:14.113Z,14.56
2017-07-12T22:02:58.755Z,13.18
2017-07-12T22:05:43.227Z,14.17
2017-07-12T22:08:27.763Z,13.43
2017-07-12T22:11:12.487Z,12.95
2017-07-12T22:13:57.199Z,13.51
2017-07-12T22:16:41.816Z,13.66
2017-07-12T22:19:26.369Z,13.03
2017-07-12T22:22:10.906Z,14.23
2017-07-12T22:24:55.572Z,13.90
2017-07-12T22:27:40.249Z,13.46
2017-07-12T22:30:24.867Z,12.82
2017-07-12T22:33:09.434Z,14.00
2017-07-12T22:35:54.956Z,13.11
2017-07-12T22:38:31.309Z,12.81
2017-07-12T22:41:04.051Z,12.51
2017-07-12T22:43:30.311Z,12.64
2017-07-12T22:45:59.870Z,13.26
2017-07-12T22:48:29.348Z,13.00
2017-07-12T22:50:55.865Z,12.63
2017-07-12T22:53:22.228Z,13.91
2017-07-12T22:55:48.572Z,14.20
2017-07-12T22:58:14.922Z,13.92
2017-07-12T23:00:41.523Z,12.63
2017-07-12T23:03:07.968Z,12.69
2017-07-12T23:05:34.324Z,12.34
2017-07-12T23:08:00.695Z,12.90
2017-07-12T23:10:27.086Z,13.44
2017-07-12T23:12:53.466Z,12.67
2017-07-12T23:15:19.826Z,13.29
2017-07-12T23:17:46.198Z,12.76
2017-07-12T23:20:12.638Z,12.97
2017-07-12T23:22:39.016Z,12.36
2017-07-12T23:25:05.349Z,12.51
2017-07-12T23:27:31.713Z,12.40
2017-07-12T23:29:58.147Z,12.90
2017-07-12T23:32:24.520Z,12.31
2017-07-12T23:34:50.929Z,12.54
2017-07-12T23:37:17.331Z,13.77
2017-07-12T23:39:43.767Z,12.61
2017-07-12T23:42:10.154Z,13.55
2017-07-12T23:44:36.648Z,12.47
2017-07-12T23:47:03.414Z,12.43
2017-07-12T23:49:29.888Z,12.16
2017-07-12T23:51:56.290Z,12.18
2017-07-12T23:54:22.755Z,12.21
2017-07-12T23:56:49.165Z,12.07
2017-07-12T23:59:15.552Z,11.89
